Time;durP1;ratioP1;P1;durP2;ratioP2;P2;SDS_P1;SDS_P2;PMS_P1;PMS_P2;Temp;Humidity;BMP_temperature;BMP_pressure;BME280_temperature;BME280_humidity;BME280_pressure;Samples;Min_cycle;Max_cycle;Signal;HPM_P1;HPM_P2
2021/04/30 00:00:37;;;;;;;12.20;7.60;;;;;;;;;;1501283;39;20087;-60
2021/04/30 00:01:38;;;;;;;10.30;6.93;;;;;;;;;;1501538;39;20118;-59
2021/04/30 00:02:41;;;;;;;10.52;7.25;;;;;;;;;;1501401;39;20407;-59
2021/04/30 00:03:41;;;;;;;11.13;7.00;;;;;;;;;;1501280;39;20091;-59
2021/04/30 00:04:43;;;;;;;11.32;7.45;;;;;;;;;;1501324;39;20402;-59
2021/04/30 00:05:44;;;;;;;12.45;7.55;;;;;;;;;;1501331;39;20394;-59
2021/04/30 00:06:45;;;;;;;10.32;7.50;;;;;;;;;;1501252;39;20034;-58
2021/04/30 00:07:46;;;;;;;9.68;6.85;;;;;;;;;;1501368;39;20038;-59
2021/04/30 00:08:47;;;;;;;11.07;7.07;;;;;;;;;;1501237;39;20058;-59
2021/04/30 00:09:48;;;;;;;9.52;6.72;;;;;;;;;;1501438;39;20039;-59
2021/04/30 00:10:50;;;;;;;10.65;7.38;;;;;;;;;;1501473;39;20355;-60
2021/04/30 00:11:51;;;;;;;8.27;6.68;;;;;;;;;;1501366;39;20030;-59
2021/04/30 00:12:52;;;;;;;9.02;7.10;;;;;;;;;;1501318;39;20031;-59
2021/04/30 00:13:53;;;;;;;9.95;7.32;;;;;;;;;;1501501;39;20038;-59
2021/04/30 00:14:54;;;;;;;10.02;6.20;;;;;;;;;;1501333;39;20046;-59
2021/04/30 00:15:56;;;;;;;10.57;7.03;;;;;;;;;;1501261;39;20038;-59
2021/04/30 00:16:58;;;;;;;11.13;7.53;;;;;;;;;;1501525;39;20034;-59
2021/04/30 00:18:04;;;;;;;8.60;6.72;;;;;;;;;;1501378;39;20035;-59
2021/04/30 00:19:05;;;;;;;8.55;6.50;;;;;;;;;;1501223;39;20042;-61
2021/04/30 00:20:08;;;;;;;8.10;6.72;;;;;;;;;;1501270;39;20034;-59
2021/04/30 00:21:09;;;;;;;8.32;6.45;;;;;;;;;;1501264;39;20031;-60
2021/04/30 00:22:10;;;;;;;9.07;6.82;;;;;;;;;;1501299;39;20382;-59
2021/04/30 00:23:12;;;;;;;10.55;6.72;;;;;;;;;;1501527;39;20027;-59
2021/04/30 00:24:14;;;;;;;8.13;6.32;;;;;;;;;;1501284;39;20026;-59
2021/04/30 00:25:16;;;;;;;10.13;6.80;;;;;;;;;;1501229;39;20026;-59
2021/04/30 00:26:16;;;;;;;10.00;6.50;;;;;;;;;;1501365;39;20033;-59
2021/04/30 00:27:18;;;;;;;9.52;6.95;;;;;;;;;;1501364;39;20297;-59
2021/04/30 00:28:18;;;;;;;9.70;7.03;;;;;;;;;;1501259;39;20386;-59
2021/04/30 00:29:20;;;;;;;9.00;7.03;;;;;;;;;;1501326;39;20027;-59
2021/04/30 00:30:21;;;;;;;11.00;7.43;;;;;;;;;;1501149;39;20027;-59
2021/04/30 00:31:24;;;;;;;9.77;6.85;;;;;;;;;;1501159;39;20035;-59
2021/04/30 00:32:25;;;;;;;10.93;7.50;;;;;;;;;;1501347;39;20034;-59
2021/04/30 00:33:27;;;;;;;9.80;7.55;;;;;;;;;;1501350;39;20026;-59
2021/04/30 00:34:28;;;;;;;10.43;7.50;;;;;;;;;;1501176;39;20391;-59
2021/04/30 00:35:29;;;;;;;10.95;7.22;;;;;;;;;;1501358;39;20130;-59
2021/04/30 00:36:30;;;;;;;12.32;8.75;;;;;;;;;;1501247;39;20382;-59
2021/04/30 00:37:31;;;;;;;10.43;6.90;;;;;;;;;;1501390;39;20030;-59
2021/04/30 00:38:32;;;;;;;10.27;6.85;;;;;;;;;;1501348;39;20037;-59
2021/04/30 00:39:33;;;;;;;11.73;7.55;;;;;;;;;;1501264;39;20023;-60
2021/04/30 00:40:35;;;;;;;10.10;7.60;;;;;;;;;;1501176;39;20031;-59
2021/04/30 00:41:38;;;;;;;12.10;7.88;;;;;;;;;;1501391;39;20023;-59
2021/04/30 00:42:39;;;;;;;11.57;7.43;;;;;;;;;;1501214;39;20027;-61
2021/04/30 00:43:40;;;;;;;10.98;7.82;;;;;;;;;;1501180;39;20026;-59
2021/04/30 00:44:48;;;;;;;9.90;7.38;;;;;;;;;;1501150;39;20359;-59
2021/04/30 00:45:52;;;;;;;12.15;7.68;;;;;;;;;;1501170;39;20305;-59
2021/04/30 00:46:54;;;;;;;9.13;6.97;;;;;;;;;;1501254;39;20286;-59
2021/04/30 00:47:55;;;;;;;9.25;7.20;;;;;;;;;;1501139;39;20118;-59
2021/04/30 00:48:57;;;;;;;10.80;7.93;;;;;;;;;;1501126;39;20422;-58
2021/04/30 00:50:01;;;;;;;11.98;7.45;;;;;;;;;;1501153;39;20409;-59
2021/04/30 00:51:02;;;;;;;8.65;6.97;;;;;;;;;;1501289;39;20150;-59
2021/04/30 00:52:03;;;;;;;10.82;7.43;;;;;;;;;;1501134;39;20031;-59
2021/04/30 00:53:05;;;;;;;11.15;7.47;;;;;;;;;;1501325;39;20037;-59
2021/04/30 00:54:06;;;;;;;12.00;8.60;;;;;;;;;;1501191;39;20092;-58
2021/04/30 00:55:10;;;;;;;12.32;8.32;;;;;;;;;;1501126;39;20067;-59
2021/04/30 00:56:11;;;;;;;13.85;8.55;;;;;;;;;;1501296;39;20084;-59
2021/04/30 00:57:12;;;;;;;17.77;8.80;;;;;;;;;;1501112;39;20034;-59
2021/04/30 00:58:13;;;;;;;12.00;7.90;;;;;;;;;;1501056;39;20386;-59
2021/04/30 00:59:14;;;;;;;9.85;7.53;;;;;;;;;;1501329;39;20039;-59
2021/04/30 01:00:16;;;;;;;10.45;7.82;;;;;;;;;;1501311;39;20042;-59
2021/04/30 01:01:18;;;;;;;13.52;8.25;;;;;;;;;;1501316;39;20119;-59
2021/04/30 01:02:20;;;;;;;10.40;7.93;;;;;;;;;;1501285;39;20026;-59
2021/04/30 01:03:22;;;;;;;11.48;7.78;;;;;;;;;;1501121;39;20034;-59
2021/04/30 01:04:22;;;;;;;10.20;7.63;;;;;;;;;;1501062;39;20081;-59
2021/04/30 01:05:25;;;;;;;9.05;6.95;;;;;;;;;;1501178;39;20045;-61
2021/04/30 01:06:25;;;;;;;10.98;7.78;;;;;;;;;;1501104;39;20382;-59
2021/04/30 01:07:27;;;;;;;11.20;7.97;;;;;;;;;;1501065;39;20042;-59
2021/04/30 01:08:28;;;;;;;10.70;7.50;;;;;;;;;;1501184;39;20027;-59
2021/04/30 01:09:29;;;;;;;9.60;7.28;;;;;;;;;;1501929;39;20023;-59
2021/04/30 01:10:30;;;;;;;12.00;7.63;;;;;;;;;;1501747;39;20031;-59
2021/04/30 01:11:33;;;;;;;10.68;7.85;;;;;;;;;;1501724;39;20474;-59
2021/04/30 01:12:35;;;;;;;11.52;7.57;;;;;;;;;;1502009;39;20297;-59
2021/04/30 01:13:37;;;;;;;11.80;7.80;;;;;;;;;;1501699;39;20027;-59
2021/04/30 01:14:37;;;;;;;11.82;7.63;;;;;;;;;;1501923;39;20226;-60
2021/04/30 01:15:39;;;;;;;10.60;7.32;;;;;;;;;;1501768;39;20151;-63
2021/04/30 01:16:40;;;;;;;10.63;7.53;;;;;;;;;;1501696;39;20030;-61
2021/04/30 01:17:42;;;;;;;10.85;8.10;;;;;;;;;;1501921;39;20038;-61
2021/04/30 01:18:45;;;;;;;9.23;6.47;;;;;;;;;;1501629;39;20413;-61
2021/04/30 01:19:46;;;;;;;9.95;6.88;;;;;;;;;;1501880;39;20037;-61
2021/04/30 01:20:47;;;;;;;9.75;7.07;;;;;;;;;;1501666;39;20030;-61
2021/04/30 01:21:54;;;;;;;10.65;7.50;;;;;;;;;;1501913;39;20034;-61
2021/04/30 01:22:55;;;;;;;11.07;7.32;;;;;;;;;;1501871;39;20034;-61
2021/04/30 01:23:57;;;;;;;11.15;7.43;;;;;;;;;;1501885;39;20126;-61
2021/04/30 01:24:58;;;;;;;9.48;7.43;;;;;;;;;;1501725;39;20023;-61
2021/04/30 01:25:59;;;;;;;10.13;7.45;;;;;;;;;;1501870;39;20042;-61
2021/04/30 01:27:00;;;;;;;10.05;7.10;;;;;;;;;;1501674;39;20409;-61
2021/04/30 01:28:02;;;;;;;7.97;6.75;;;;;;;;;;1501813;39;20034;-61
2021/04/30 01:29:03;;;;;;;11.90;7.32;;;;;;;;;;1501801;39;20123;-61
2021/04/30 01:30:07;;;;;;;8.05;6.50;;;;;;;;;;1501857;39;20354;-61
2021/04/30 01:31:08;;;;;;;9.23;7.50;;;;;;;;;;1501649;39;20401;-61
2021/04/30 01:32:11;;;;;;;9.40;7.18;;;;;;;;;;1501903;39;20063;-61
2021/04/30 01:33:17;;;;;;;9.48;7.40;;;;;;;;;;1501822;39;20056;-61
2021/04/30 01:34:19;;;;;;;9.23;6.55;;;;;;;;;;1501719;39;20428;-59
2021/04/30 01:35:23;;;;;;;10.32;6.60;;;;;;;;;;1501956;39;20034;-59
2021/04/30 01:36:24;;;;;;;11.73;6.80;;;;;;;;;;1501688;39;20031;-60
2021/04/30 01:37:26;;;;;;;9.00;6.53;;;;;;;;;;1501610;39;20107;-59
2021/04/30 01:38:27;;;;;;;9.80;6.15;;;;;;;;;;1501593;39;20386;-59
2021/04/30 01:39:28;;;;;;;9.00;6.72;;;;;;;;;;1501672;39;20126;-59
2021/04/30 01:40:31;;;;;;;10.57;7.05;;;;;;;;;;1501728;39;20074;-59
2021/04/30 01:41:33;;;;;;;9.93;6.85;;;;;;;;;;1501817;39;20031;-59
2021/04/30 01:42:34;;;;;;;8.07;6.40;;;;;;;;;;1501885;39;20027;-59
2021/04/30 01:43:35;;;;;;;10.65;7.18;;;;;;;;;;1501803;39;20043;-59
2021/04/30 01:44:36;;;;;;;8.98;7.05;;;;;;;;;;1501826;39;20049;-59
2021/04/30 01:45:39;;;;;;;10.40;7.43;;;;;;;;;;1501873;39;20031;-60
2021/04/30 01:46:41;;;;;;;10.07;7.07;;;;;;;;;;1501556;39;20454;-60
2021/04/30 01:47:42;;;;;;;12.35;7.97;;;;;;;;;;1501584;39;20389;-58
2021/04/30 01:48:43;;;;;;;8.32;6.32;;;;;;;;;;1501835;39;20034;-59
2021/04/30 01:49:45;;;;;;;10.70;6.65;;;;;;;;;;1497005;39;20020;-59
2021/04/30 01:50:47;;;;;;;10.68;7.20;;;;;;;;;;1496976;39;20090;-59
2021/04/30 01:51:48;;;;;;;9.27;6.90;;;;;;;;;;1501877;39;20031;-59
2021/04/30 01:52:50;;;;;;;8.90;6.72;;;;;;;;;;1501716;39;20297;-59
2021/04/30 01:53:51;;;;;;;9.63;7.28;;;;;;;;;;1501820;39;20031;-59
2021/04/30 01:54:52;;;;;;;9.25;7.18;;;;;;;;;;1501748;39;20026;-59
2021/04/30 01:55:54;;;;;;;10.77;7.40;;;;;;;;;;1501779;39;20115;-59
2021/04/30 01:56:56;;;;;;;10.00;7.60;;;;;;;;;;1501612;39;20037;-59
2021/04/30 01:57:57;;;;;;;10.63;7.10;;;;;;;;;;1501579;39;20031;-59
2021/04/30 01:58:58;;;;;;;10.05;7.32;;;;;;;;;;1501563;39;20364;-59
2021/04/30 01:59:59;;;;;;;10.00;7.75;;;;;;;;;;1501769;39;20026;-59
2021/04/30 02:01:01;;;;;;;10.52;7.65;;;;;;;;;;1501785;39;20027;-59
2021/04/30 02:02:02;;;;;;;11.60;7.70;;;;;;;;;;1501623;39;20108;-59
2021/04/30 02:03:04;;;;;;;11.82;8.15;;;;;;;;;;1501816;39;20039;-59
2021/04/30 02:04:07;;;;;;;11.27;7.68;;;;;;;;;;1501698;39;20023;-59
2021/04/30 02:05:10;;;;;;;12.60;7.63;;;;;;;;;;1501728;39;20282;-59
2021/04/30 02:06:11;;;;;;;10.13;7.43;;;;;;;;;;1501604;39;20385;-59
2021/04/30 02:07:12;;;;;;;10.80;7.78;;;;;;;;;;1501544;39;20031;-61
2021/04/30 02:08:15;;;;;;;12.55;7.53;;;;;;;;;;1501461;39;20030;-61
2021/04/30 02:09:17;;;;;;;13.50;8.40;;;;;;;;;;1501765;39;20034;-61
2021/04/30 02:10:20;;;;;;;10.57;7.45;;;;;;;;;;1501765;39;20030;-61
2021/04/30 02:11:22;;;;;;;11.07;7.50;;;;;;;;;;1501723;39;20071;-61
2021/04/30 02:12:24;;;;;;;10.88;7.22;;;;;;;;;;1501790;39;20038;-61
2021/04/30 02:13:25;;;;;;;9.88;7.07;;;;;;;;;;1501550;39;20062;-59
2021/04/30 02:14:26;;;;;;;9.50;6.85;;;;;;;;;;1501733;39;20044;-59
2021/04/30 02:15:29;;;;;;;10.05;6.82;;;;;;;;;;1501515;39;20031;-59
2021/04/30 02:16:30;;;;;;;9.70;7.07;;;;;;;;;;1501573;39;20022;-59
2021/04/30 02:17:32;;;;;;;8.88;7.28;;;;;;;;;;1501769;39;20027;-59
2021/04/30 02:18:33;;;;;;;9.15;6.50;;;;;;;;;;1501542;39;20398;-59
2021/04/30 02:19:34;;;;;;;10.48;6.63;;;;;;;;;;1501413;39;20127;-59
2021/04/30 02:20:36;;;;;;;10.60;7.07;;;;;;;;;;1501718;39;20031;-59
2021/04/30 02:21:37;;;;;;;11.07;7.30;;;;;;;;;;1501602;39;20059;-59
2021/04/30 02:22:40;;;;;;;10.70;7.35;;;;;;;;;;1501607;39;20023;-58
2021/04/30 02:23:42;;;;;;;8.95;6.85;;;;;;;;;;1501578;39;20027;-59
2021/04/30 02:24:45;;;;;;;11.80;7.35;;;;;;;;;;1501548;39;20434;-59
2021/04/30 02:25:46;;;;;;;9.10;7.22;;;;;;;;;;1501478;39;20039;-59
2021/04/30 02:26:48;;;;;;;11.73;7.82;;;;;;;;;;1501570;39;20390;-59
2021/04/30 02:27:52;;;;;;;9.77;7.13;;;;;;;;;;1501677;39;20022;-61
2021/04/30 02:28:53;;;;;;;11.13;7.70;;;;;;;;;;1501495;39;20291;-59
2021/04/30 02:29:54;;;;;;;8.98;6.88;;;;;;;;;;1501669;39;20046;-59
2021/04/30 02:30:55;;;;;;;10.02;7.43;;;;;;;;;;1501554;39;20309;-59
2021/04/30 02:31:56;;;;;;;9.30;7.00;;;;;;;;;;1501720;39;20027;-59
2021/04/30 02:32:58;;;;;;;8.73;6.68;;;;;;;;;;1501681;39;20099;-59
2021/04/30 02:33:59;;;;;;;10.50;7.18;;;;;;;;;;1501637;39;20038;-59
2021/04/30 02:35:01;;;;;;;7.63;6.10;;;;;;;;;;1501703;39;20030;-59
2021/04/30 02:36:03;;;;;;;8.80;6.82;;;;;;;;;;1501548;39;20034;-59
2021/04/30 02:37:04;;;;;;;9.15;6.60;;;;;;;;;;1501491;39;20033;-59
2021/04/30 02:38:06;;;;;;;8.85;6.55;;;;;;;;;;1501713;39;20047;-59
2021/04/30 02:39:08;;;;;;;10.30;7.28;;;;;;;;;;1501665;39;20093;-59
2021/04/30 02:40:12;;;;;;;9.20;6.82;;;;;;;;;;1501677;39;20073;-59
2021/04/30 02:41:12;;;;;;;10.50;7.25;;;;;;;;;;1501689;39;20062;-59
2021/04/30 02:42:15;;;;;;;9.95;7.72;;;;;;;;;;1501535;39;20031;-59
2021/04/30 02:43:18;;;;;;;11.20;7.15;;;;;;;;;;1501521;39;20027;-59
2021/04/30 02:44:20;;;;;;;10.15;7.53;;;;;;;;;;1501440;39;20275;-59
2021/04/30 02:45:21;;;;;;;9.68;7.05;;;;;;;;;;1501495;39;20302;-59
2021/04/30 02:46:24;;;;;;;9.88;6.97;;;;;;;;;;1501489;39;20386;-59
2021/04/30 02:47:29;;;;;;;10.27;7.15;;;;;;;;;;1501460;39;20046;-59
2021/04/30 02:48:33;;;;;;;8.95;6.65;;;;;;;;;;1501448;39;20378;-59
2021/04/30 02:49:42;;;;;;;10.95;7.53;;;;;;;;;;1501439;39;20118;-59
2021/04/30 02:50:44;;;;;;;10.07;7.68;;;;;;;;;;1501534;39;20026;-59
2021/04/30 02:51:45;;;;;;;13.00;7.72;;;;;;;;;;1501467;39;20053;-59
2021/04/30 02:52:47;;;;;;;10.65;7.57;;;;;;;;;;1501628;39;20027;-59
2021/04/30 02:53:48;;;;;;;10.23;7.75;;;;;;;;;;1501496;39;20366;-57
2021/04/30 02:54:50;;;;;;;11.85;8.02;;;;;;;;;;1501718;39;20031;-59
2021/04/30 02:55:52;;;;;;;10.27;7.35;;;;;;;;;;1501435;39;20034;-59
2021/04/30 02:56:53;;;;;;;11.88;7.63;;;;;;;;;;1501357;39;20030;-59
2021/04/30 02:57:57;;;;;;;9.80;7.88;;;;;;;;;;1501463;39;20031;-59
2021/04/30 02:58:58;;;;;;;8.52;6.97;;;;;;;;;;1501403;39;20479;-59
2021/04/30 03:00:00;;;;;;;8.68;6.30;;;;;;;;;;1501607;39;20103;-59
2021/04/30 03:01:00;;;;;;;9.00;6.50;;;;;;;;;;1501437;39;20375;-59
2021/04/30 03:02:02;;;;;;;10.43;7.57;;;;;;;;;;1501602;39;20035;-61
2021/04/30 03:03:03;;;;;;;9.45;6.85;;;;;;;;;;1501660;39;20031;-59
2021/04/30 03:04:05;;;;;;;9.38;6.40;;;;;;;;;;1501492;39;20384;-59
2021/04/30 03:05:07;;;;;;;9.70;6.93;;;;;;;;;;1501633;39;20031;-59
2021/04/30 03:06:09;;;;;;;9.68;7.00;;;;;;;;;;1501466;39;20092;-59
2021/04/30 03:07:10;;;;;;;9.50;7.00;;;;;;;;;;1501438;39;20075;-59
2021/04/30 03:08:11;;;;;;;10.90;8.02;;;;;;;;;;1501528;39;20027;-59
2021/04/30 03:09:12;;;;;;;9.10;6.65;;;;;;;;;;1496704;39;20421;-58
2021/04/30 03:10:15;;;;;;;9.30;6.97;;;;;;;;;;1496855;39;20038;-59
2021/04/30 03:11:16;;;;;;;8.45;7.03;;;;;;;;;;1501425;39;20030;-59
2021/04/30 03:12:17;;;;;;;10.75;7.55;;;;;;;;;;1501477;39;20034;-58
2021/04/30 03:13:18;;;;;;;11.27;7.78;;;;;;;;;;1501487;39;20302;-59
2021/04/30 03:14:20;;;;;;;9.35;7.47;;;;;;;;;;1501461;39;20039;-59
2021/04/30 03:15:21;;;;;;;11.13;7.50;;;;;;;;;;1501428;39;20130;-59
2021/04/30 03:16:22;;;;;;;13.65;8.40;;;;;;;;;;1501531;39;20022;-59
2021/04/30 03:17:23;;;;;;;10.25;7.68;;;;;;;;;;1501608;39;20031;-59
2021/04/30 03:18:24;;;;;;;13.02;7.70;;;;;;;;;;1501549;39;20027;-59
2021/04/30 03:19:25;;;;;;;10.27;7.70;;;;;;;;;;1501582;39;20034;-58
2021/04/30 03:20:26;;;;;;;9.32;6.78;;;;;;;;;;1501610;39;20027;-59
2021/04/30 03:21:27;;;;;;;9.52;7.72;;;;;;;;;;1501405;39;20019;-60
2021/04/30 03:22:28;;;;;;;9.73;7.25;;;;;;;;;;1501576;39;20035;-60
2021/04/30 03:23:29;;;;;;;10.25;7.03;;;;;;;;;;1501410;39;20043;-61
2021/04/30 03:24:31;;;;;;;9.52;7.22;;;;;;;;;;1501564;39;20042;-61
2021/04/30 03:25:32;;;;;;;11.68;7.57;;;;;;;;;;1501411;39;20386;-63
2021/04/30 03:26:34;;;;;;;11.25;7.72;;;;;;;;;;1501572;39;20140;-61
2021/04/30 03:27:35;;;;;;;10.90;8.00;;;;;;;;;;1501487;39;20027;-61
2021/04/30 03:28:37;;;;;;;12.85;7.97;;;;;;;;;;1501389;39;20031;-61
2021/04/30 03:29:37;;;;;;;10.70;7.50;;;;;;;;;;1501373;39;20026;-61
2021/04/30 03:30:39;;;;;;;12.77;7.60;;;;;;;;;;1501629;39;20030;-61
2021/04/30 03:31:40;;;;;;;11.57;8.70;;;;;;;;;;1500808;39;20035;-61
2021/04/30 03:32:41;;;;;;;11.68;8.38;;;;;;;;;;1501390;39;20034;-61
2021/04/30 03:33:42;;;;;;;10.00;7.85;;;;;;;;;;1501368;39;20031;-61
2021/04/30 03:34:43;;;;;;;9.82;7.10;;;;;;;;;;1501374;39;20027;-60
2021/04/30 03:35:44;;;;;;;11.45;8.20;;;;;;;;;;1501341;39;20120;-61
2021/04/30 03:36:46;;;;;;;12.18;7.97;;;;;;;;;;1501600;39;20027;-61
2021/04/30 03:37:47;;;;;;;12.52;8.15;;;;;;;;;;1501356;39;20386;-61
2021/04/30 03:38:48;;;;;;;12.73;8.32;;;;;;;;;;1501338;39;20038;-61
2021/04/30 03:39:50;;;;;;;13.70;8.73;;;;;;;;;;1501517;39;20019;-61
2021/04/30 03:40:52;;;;;;;12.35;8.48;;;;;;;;;;1501545;39;20034;-61
2021/04/30 03:41:53;;;;;;;11.65;7.55;;;;;;;;;;1501479;39;20033;-61
2021/04/30 03:42:54;;;;;;;14.07;8.63;;;;;;;;;;1501544;39;20031;-60
2021/04/30 03:44:08;;;;;;;11.98;8.32;;;;;;;;;;1500661;39;20361;-60
2021/04/30 03:45:11;;;;;;;11.25;8.18;;;;;;;;;;1500348;39;20364;-61
2021/04/30 03:46:13;;;;;;;12.00;8.65;;;;;;;;;;1500336;39;20023;-61
2021/04/30 03:47:13;;;;;;;12.25;9.05;;;;;;;;;;1500529;39;20030;-61
2021/04/30 03:48:34;;;;;;;;;;;;;;;;;;1500564;39;20046;-61
2021/04/30 03:49:45;;;;;;;13.00;7.93;;;;;;;;;;1500214;39;20011;-61
2021/04/30 03:50:51;;;;;;;12.88;8.50;;;;;;;;;;1500027;39;20035;-61
2021/04/30 03:51:52;;;;;;;13.63;8.63;;;;;;;;;;1500174;39;20066;-61
2021/04/30 03:52:53;;;;;;;14.80;8.65;;;;;;;;;;1500411;39;20302;-60
2021/04/30 03:53:55;;;;;;;13.75;9.07;;;;;;;;;;1500385;39;20031;-61
2021/04/30 03:54:55;;;;;;;11.80;8.75;;;;;;;;;;1500526;39;20031;-60
2021/04/30 03:55:57;;;;;;;11.27;8.10;;;;;;;;;;1499874;39;20031;-61
2021/04/30 03:56:58;;;;;;;11.55;7.80;;;;;;;;;;1500110;39;20054;-61
2021/04/30 03:57:59;;;;;;;10.90;8.18;;;;;;;;;;1500578;39;20043;-61
2021/04/30 03:59:00;;;;;;;12.25;8.20;;;;;;;;;;1500472;39;20031;-61
2021/04/30 04:00:02;;;;;;;10.98;8.20;;;;;;;;;;1500551;39;20035;-61
2021/04/30 04:01:03;;;;;;;12.07;9.05;;;;;;;;;;1500631;39;20122;-61
2021/04/30 04:02:04;;;;;;;11.20;8.73;;;;;;;;;;1500328;39;20035;-59
2021/04/30 04:03:05;;;;;;;12.48;8.80;;;;;;;;;;1500333;39;20027;-61
2021/04/30 04:04:07;;;;;;;12.95;9.18;;;;;;;;;;1500365;39;20027;-61
2021/04/30 04:05:09;;;;;;;12.05;9.13;;;;;;;;;;1500605;39;20027;-60
2021/04/30 04:06:10;;;;;;;15.43;10.43;;;;;;;;;;1500348;39;20398;-60
2021/04/30 04:07:11;;;;;;;14.10;9.45;;;;;;;;;;1500495;39;20027;-60
2021/04/30 04:08:12;;;;;;;14.05;9.50;;;;;;;;;;1500503;39;20391;-61
2021/04/30 04:09:13;;;;;;;13.07;9.20;;;;;;;;;;1500366;39;20413;-61
2021/04/30 04:10:14;;;;;;;15.75;10.18;;;;;;;;;;1500642;39;20027;-61
2021/04/30 04:11:15;;;;;;;14.45;9.40;;;;;;;;;;1500477;39;20028;-61
2021/04/30 04:12:16;;;;;;;14.15;9.65;;;;;;;;;;1500437;39;20387;-61
2021/04/30 04:13:19;;;;;;;13.27;9.48;;;;;;;;;;1500348;39;20027;-61
2021/04/30 04:14:20;;;;;;;13.82;9.45;;;;;;;;;;1500400;39;20299;-61
2021/04/30 04:15:22;;;;;;;12.48;9.52;;;;;;;;;;1500324;39;20471;-61
2021/04/30 04:16:23;;;;;;;15.18;9.80;;;;;;;;;;1500488;39;20039;-61
2021/04/30 04:17:24;;;;;;;15.13;9.95;;;;;;;;;;1500552;39;20043;-61
2021/04/30 04:18:25;;;;;;;12.10;9.52;;;;;;;;;;1500211;39;20023;-61
2021/04/30 04:19:27;;;;;;;14.18;9.90;;;;;;;;;;1500332;39;20374;-61
2021/04/30 04:20:27;;;;;;;15.07;10.38;;;;;;;;;;1500293;39;20383;-61
2021/04/30 04:21:29;;;;;;;14.05;9.23;;;;;;;;;;1500268;39;20184;-61
2021/04/30 04:22:30;;;;;;;12.27;9.05;;;;;;;;;;1500443;39;20027;-61
2021/04/30 04:23:31;;;;;;;14.18;9.68;;;;;;;;;;1500381;39;20023;-61
2021/04/30 04:24:33;;;;;;;14.25;9.32;;;;;;;;;;1500507;39;20115;-61
2021/04/30 04:25:34;;;;;;;12.27;8.65;;;;;;;;;;1500449;39;20126;-61
2021/04/30 04:26:35;;;;;;;13.13;9.50;;;;;;;;;;1500457;39;20027;-61
2021/04/30 04:27:36;;;;;;;12.90;9.45;;;;;;;;;;1500304;39;20040;-61
2021/04/30 04:28:37;;;;;;;12.75;9.30;;;;;;;;;;1500427;39;20047;-61
2021/04/30 04:29:38;;;;;;;15.15;9.73;;;;;;;;;;1500427;39;20030;-61
2021/04/30 04:30:41;;;;;;;12.48;9.13;;;;;;;;;;1499754;39;20339;-61
2021/04/30 04:31:43;;;;;;;14.50;8.70;;;;;;;;;;1499912;39;20038;-61
2021/04/30 04:32:44;;;;;;;11.60;8.75;;;;;;;;;;1500289;39;20027;-61
2021/04/30 04:33:45;;;;;;;14.00;9.73;;;;;;;;;;1500246;39;20175;-60
2021/04/30 04:34:46;;;;;;;13.07;9.93;;;;;;;;;;1500465;39;20083;-61
2021/04/30 04:35:47;;;;;;;14.15;10.45;;;;;;;;;;1500521;39;20027;-61
2021/04/30 04:36:48;;;;;;;16.45;11.73;;;;;;;;;;1500371;39;20263;-60
2021/04/30 04:37:49;;;;;;;18.13;11.35;;;;;;;;;;1500451;39;20039;-61
2021/04/30 04:38:50;;;;;;;15.88;10.95;;;;;;;;;;1500504;39;20038;-61
2021/04/30 04:39:51;;;;;;;16.90;11.75;;;;;;;;;;1500445;39;20031;-61
2021/04/30 04:40:53;;;;;;;18.80;12.48;;;;;;;;;;1500457;39;20068;-61
2021/04/30 04:41:54;;;;;;;15.52;12.07;;;;;;;;;;1500309;39;20039;-61
2021/04/30 04:42:55;;;;;;;18.10;11.95;;;;;;;;;;1500488;39;20039;-61
2021/04/30 04:43:56;;;;;;;16.67;11.48;;;;;;;;;;1500379;39;20043;-61
2021/04/30 04:44:57;;;;;;;16.42;11.90;;;;;;;;;;1500488;39;20038;-61
2021/04/30 04:45:59;;;;;;;17.02;12.57;;;;;;;;;;1500431;39;20034;-61
2021/04/30 04:47:01;;;;;;;19.20;13.10;;;;;;;;;;1500273;39;20304;-62
2021/04/30 04:48:02;;;;;;;17.00;12.50;;;;;;;;;;1500319;39;20031;-61
2021/04/30 04:49:03;;;;;;;16.92;12.50;;;;;;;;;;1500418;39;20053;-61
2021/04/30 04:50:06;;;;;;;19.42;13.13;;;;;;;;;;1500486;39;20023;-61
2021/04/30 04:51:07;;;;;;;16.75;12.40;;;;;;;;;;1500400;39;20067;-61
2021/04/30 04:52:08;;;;;;;19.50;14.02;;;;;;;;;;1500282;39;20024;-61
2021/04/30 04:53:09;;;;;;;21.20;14.63;;;;;;;;;;1500431;39;20034;-61
2021/04/30 04:54:10;;;;;;;18.85;13.10;;;;;;;;;;1499794;39;20031;-61
2021/04/30 04:55:16;;;;;;;18.02;13.18;;;;;;;;;;1498006;39;20057;-60
2021/04/30 04:56:17;;;;;;;18.30;12.27;;;;;;;;;;1497375;39;20027;-61
2021/04/30 04:57:18;;;;;;;17.48;12.68;;;;;;;;;;1497426;39;20031;-61
2021/04/30 04:58:20;;;;;;;20.02;13.57;;;;;;;;;;1497560;39;20027;-61
2021/04/30 04:59:21;;;;;;;18.65;12.80;;;;;;;;;;1497435;39;20024;-60
2021/04/30 05:00:22;;;;;;;19.90;13.57;;;;;;;;;;1497551;39;20031;-61
2021/04/30 05:01:24;;;;;;;20.27;14.07;;;;;;;;;;1497600;39;20028;-61
2021/04/30 05:02:25;;;;;;;20.05;14.20;;;;;;;;;;1497484;39;20099;-61
2021/04/30 05:03:27;;;;;;;22.58;14.50;;;;;;;;;;1497333;39;20398;-61
2021/04/30 05:04:27;;;;;;;18.08;13.25;;;;;;;;;;1497574;39;20024;-61
2021/04/30 05:05:29;;;;;;;20.48;13.48;;;;;;;;;;1497563;39;20038;-61
2021/04/30 05:06:29;;;;;;;21.58;14.05;;;;;;;;;;1497645;39;20027;-61
2021/04/30 05:07:31;;;;;;;18.83;13.38;;;;;;;;;;1497376;39;20028;-61
2021/04/30 05:08:32;;;;;;;18.80;13.52;;;;;;;;;;1497362;39;20448;-61
2021/04/30 05:09:33;;;;;;;19.30;13.93;;;;;;;;;;1497492;39;20027;-61
2021/04/30 05:10:34;;;;;;;19.55;13.70;;;;;;;;;;1497400;39;20027;-61
2021/04/30 05:11:35;;;;;;;20.60;14.55;;;;;;;;;;1497343;39;20427;-61
2021/04/30 05:12:36;;;;;;;20.65;14.02;;;;;;;;;;1497414;39;20335;-61
2021/04/30 05:13:37;;;;;;;21.00;13.32;;;;;;;;;;1497415;39;20047;-61
2021/04/30 05:14:38;;;;;;;19.45;13.90;;;;;;;;;;1497511;39;20031;-61
2021/04/30 05:15:40;;;;;;;18.63;14.32;;;;;;;;;;1497340;39;20038;-61
2021/04/30 05:16:41;;;;;;;20.63;14.00;;;;;;;;;;1497526;39;20027;-61
2021/04/30 05:17:43;;;;;;;19.80;14.07;;;;;;;;;;1497635;39;20039;-61
2021/04/30 05:18:44;;;;;;;21.05;14.25;;;;;;;;;;1497298;39;20095;-61
2021/04/30 05:19:45;;;;;;;18.10;13.77;;;;;;;;;;1497565;39;20044;-61
2021/04/30 05:20:46;;;;;;;19.83;14.32;;;;;;;;;;1497489;39;20023;-61
2021/04/30 05:21:48;;;;;;;18.80;15.18;;;;;;;;;;1497317;39;20387;-61
2021/04/30 05:22:49;;;;;;;20.45;15.13;;;;;;;;;;1497307;39;20107;-62
2021/04/30 05:23:50;;;;;;;20.33;14.40;;;;;;;;;;1497451;39;20027;-61
2021/04/30 05:24:53;;;;;;;20.85;15.23;;;;;;;;;;1497302;39;20037;-61
2021/04/30 05:25:55;;;;;;;20.23;14.93;;;;;;;;;;1497488;39;20023;-60
2021/04/30 05:26:56;;;;;;;21.23;15.18;;;;;;;;;;1497301;39;20375;-61
2021/04/30 05:27:57;;;;;;;22.33;16.02;;;;;;;;;;1497638;39;20034;-57
2021/04/30 05:28:59;;;;;;;22.17;15.43;;;;;;;;;;1497222;39;20322;-57
2021/04/30 05:30:00;;;;;;;22.52;15.82;;;;;;;;;;1496880;39;20019;-56
2021/04/30 05:31:02;;;;;;;22.23;16.20;;;;;;;;;;1497005;39;20044;-57
2021/04/30 05:32:04;;;;;;;23.77;17.20;;;;;;;;;;1497389;39;20039;-57
2021/04/30 05:33:05;;;;;;;23.63;16.92;;;;;;;;;;1497289;39;20115;-57
2021/04/30 05:34:06;;;;;;;24.13;17.20;;;;;;;;;;1497483;39;20027;-57
2021/04/30 05:35:09;;;;;;;24.35;17.45;;;;;;;;;;1497305;39;20058;-57
2021/04/30 05:36:10;;;;;;;23.90;17.52;;;;;;;;;;1497254;39;20286;-56
2021/04/30 05:37:11;;;;;;;23.60;17.05;;;;;;;;;;1497494;39;20054;-57
2021/04/30 05:38:12;;;;;;;28.50;18.48;;;;;;;;;;1497301;39;20081;-57
2021/04/30 05:39:13;;;;;;;25.83;17.45;;;;;;;;;;1497404;39;20140;-57
2021/04/30 05:40:14;;;;;;;22.80;17.17;;;;;;;;;;1497292;39;20055;-57
2021/04/30 05:41:15;;;;;;;26.17;18.85;;;;;;;;;;1497486;39;20145;-56
2021/04/30 05:42:16;;;;;;;23.63;17.23;;;;;;;;;;1497385;39;20280;-57
2021/04/30 05:43:18;;;;;;;25.50;17.83;;;;;;;;;;1497195;39;20038;-57
2021/04/30 05:44:19;;;;;;;23.40;17.42;;;;;;;;;;1497303;39;20375;-57
2021/04/30 05:45:20;;;;;;;23.75;17.40;;;;;;;;;;1496860;39;20092;-57
2021/04/30 05:46:21;;;;;;;26.75;17.35;;;;;;;;;;1496770;39;20037;-57
2021/04/30 05:47:23;;;;;;;26.45;18.00;;;;;;;;;;1497288;39;20041;-57
2021/04/30 05:48:24;;;;;;;27.70;18.77;;;;;;;;;;1497286;39;20115;-57
2021/04/30 05:49:26;;;;;;;23.55;16.70;;;;;;;;;;1497583;39;20069;-57
2021/04/30 05:50:27;;;;;;;23.45;17.65;;;;;;;;;;1497288;39;20031;-57
2021/04/30 05:51:29;;;;;;;22.63;16.77;;;;;;;;;;1497317;39;20039;-55
2021/04/30 05:52:29;;;;;;;25.42;17.08;;;;;;;;;;1497226;39;20031;-57
2021/04/30 05:53:31;;;;;;;24.50;17.80;;;;;;;;;;1497295;39;20027;-56
2021/04/30 05:54:32;;;;;;;23.13;16.52;;;;;;;;;;1497257;39;20034;-57
2021/04/30 05:55:33;;;;;;;22.92;17.77;;;;;;;;;;1497476;39;20035;-54
2021/04/30 05:56:34;;;;;;;23.75;17.98;;;;;;;;;;1497343;39;20391;-57
2021/04/30 05:57:36;;;;;;;27.50;18.48;;;;;;;;;;1497342;39;20154;-57
2021/04/30 05:58:37;;;;;;;28.23;18.60;;;;;;;;;;1497260;39;20405;-57
2021/04/30 05:59:38;;;;;;;25.80;17.08;;;;;;;;;;1497478;39;20034;-57
2021/04/30 06:00:39;;;;;;;25.38;17.65;;;;;;;;;;1497208;39;20028;-57
2021/04/30 06:01:40;;;;;;;24.95;17.42;;;;;;;;;;1497190;39;20031;-56
2021/04/30 06:02:42;;;;;;;24.65;16.55;;;;;;;;;;1496795;39;20038;-55
2021/04/30 06:03:44;;;;;;;22.35;16.02;;;;;;;;;;1496668;39;20435;-57
2021/04/30 06:04:44;;;;;;;21.77;15.90;;;;;;;;;;1497445;39;20027;-57